sensor_id;sensor_type;location;lat;lon;timestamp;pressure;altitude;pressure_sealevel;temperature;humidity
55763;BME280;42162;51.958;5.426;2024-03-02T00:00:37;99813.19;;;7.91;73.07
55763;BME280;42162;51.958;5.426;2024-03-02T00:03:06;99816.63;;;7.92;72.94
55763;BME280;42162;51.958;5.426;2024-03-02T00:05:35;99807.03;;;7.95;72.88
55763;BME280;42162;51.958;5.426;2024-03-02T00:08:04;99807.03;;;7.95;72.85
55763;BME280;42162;51.958;5.426;2024-03-02T00:10:40;99822.56;;;7.95;73.29
55763;BME280;42162;51.958;5.426;2024-03-02T00:13:08;99837.22;;;7.95;73.38
55763;BME280;42162;51.958;5.426;2024-03-02T00:15:47;99837.19;;;7.96;73.31
55763;BME280;42162;51.958;5.426;2024-03-02T00:18:18;99846.66;;;7.96;73.48
55763;BME280;42162;51.958;5.426;2024-03-02T00:20:47;99855.41;;;7.92;73.95
55763;BME280;42162;51.958;5.426;2024-03-02T00:23:15;99853.75;;;7.89;74.21
55763;BME280;42162;51.958;5.426;2024-03-02T00:25:52;99871.91;;;7.87;74.18
55763;BME280;42162;51.958;5.426;2024-03-02T00:28:29;99881.34;;;7.88;74.36
55763;BME280;42162;51.958;5.426;2024-03-02T00:31:13;99882.97;;;7.93;74.43
55763;BME280;42162;51.958;5.426;2024-03-02T00:33:41;99895.84;;;7.94;74.67
55763;BME280;42162;51.958;5.426;2024-03-02T00:36:10;99921.56;;;7.99;74.48
55763;BME280;42162;51.958;5.426;2024-03-02T00:38:49;99927.56;;;8.01;74.86
55763;BME280;42162;51.958;5.426;2024-03-02T00:41:24;99918.09;;;8.00;74.91
55763;BME280;42162;51.958;5.426;2024-03-02T00:46:29;99904.44;;;7.95;75.55
55763;BME280;42162;51.958;5.426;2024-03-02T00:49:00;99908.03;;;7.91;75.68
55763;BME280;42162;51.958;5.426;2024-03-02T00:51:33;99906.34;;;7.90;76.04
55763;BME280;42162;51.958;5.426;2024-03-02T00:54:04;99906.34;;;7.88;76.12
55763;BME280;42162;51.958;5.426;2024-03-02T00:56:32;99909.88;;;7.85;76.13
55763;BME280;42162;51.958;5.426;2024-03-02T00:58:59;99919.53;;;7.80;76.30
55763;BME280;42162;51.958;5.426;2024-03-02T01:01:26;99910.97;;;7.77;76.52
55763;BME280;42162;51.958;5.426;2024-03-02T01:03:54;99916.19;;;7.75;76.79
55763;BME280;42162;51.958;5.426;2024-03-02T01:06:21;99917.94;;;7.75;76.97
55763;BME280;42162;51.958;5.426;2024-03-02T01:08:49;99930.09;;;7.71;77.42
55763;BME280;42162;51.958;5.426;2024-03-02T01:11:20;99912.03;;;7.69;77.44
55763;BME280;42162;51.958;5.426;2024-03-02T01:13:50;99907.84;;;7.65;77.77
55763;BME280;42162;51.958;5.426;2024-03-02T01:16:19;99912.34;;;7.59;78.08
55763;BME280;42162;51.958;5.426;2024-03-02T01:18:46;99917.53;;;7.57;78.15
55763;BME280;42162;51.958;5.426;2024-03-02T01:21:15;99937.47;;;7.53;78.42
55763;BME280;42162;51.958;5.426;2024-03-02T01:23:42;99936.69;;;7.50;78.78
55763;BME280;42162;51.958;5.426;2024-03-02T01:26:10;99938.53;;;7.46;78.67
55763;BME280;42162;51.958;5.426;2024-03-02T01:28:37;99931.78;;;7.40;79.19
55763;BME280;42162;51.958;5.426;2024-03-02T01:31:04;99934.50;;;7.34;79.46
55763;BME280;42162;51.958;5.426;2024-03-02T01:33:31;99934.66;;;7.28;79.94
55763;BME280;42162;51.958;5.426;2024-03-02T01:35:59;99932.28;;;7.20;80.19
55763;BME280;42162;51.958;5.426;2024-03-02T01:38:26;99923.84;;;7.14;80.47
55763;BME280;42162;51.958;5.426;2024-03-02T01:40:55;99932.53;;;7.09;80.81
55763;BME280;42162;51.958;5.426;2024-03-02T01:43:24;99934.34;;;7.06;81.03
55763;BME280;42162;51.958;5.426;2024-03-02T01:45:51;99938.75;;;7.02;81.08
55763;BME280;42162;51.958;5.426;2024-03-02T01:48:18;99930.19;;;7.00;81.42
55763;BME280;42162;51.958;5.426;2024-03-02T01:50:46;99931.81;;;7.03;81.33
55763;BME280;42162;51.958;5.426;2024-03-02T01:53:13;99931.06;;;6.99;81.58
55763;BME280;42162;51.958;5.426;2024-03-02T01:55:41;99938.81;;;6.99;81.85
55763;BME280;42162;51.958;5.426;2024-03-02T01:58:08;99929.28;;;7.01;81.82
55763;BME280;42162;51.958;5.426;2024-03-02T02:00:35;99928.47;;;7.01;81.81
55763;BME280;42162;51.958;5.426;2024-03-02T02:03:02;99930.19;;;7.00;81.78
55763;BME280;42162;51.958;5.426;2024-03-02T02:05:30;99937.00;;;7.03;81.79
55763;BME280;42162;51.958;5.426;2024-03-02T02:07:58;99946.50;;;7.02;81.87
55763;BME280;42162;51.958;5.426;2024-03-02T02:10:25;99943.84;;;7.04;81.85
55763;BME280;42162;51.958;5.426;2024-03-02T02:12:53;99933.63;;;7.01;82.36
55763;BME280;42162;51.958;5.426;2024-03-02T02:15:24;99943.09;;;7.00;82.48
55763;BME280;42162;51.958;5.426;2024-03-02T02:17:51;99940.50;;;7.00;82.43
55763;BME280;42162;51.958;5.426;2024-03-02T02:20:18;99933.69;;;6.98;82.84
55763;BME280;42162;51.958;5.426;2024-03-02T02:23:12;99931.13;;;6.96;82.75
55763;BME280;42162;51.958;5.426;2024-03-02T02:25:40;99938.09;;;6.92;82.83
55763;BME280;42162;51.958;5.426;2024-03-02T02:28:07;99930.41;;;6.91;83.00
55763;BME280;42162;51.958;5.426;2024-03-02T02:30:35;99925.25;;;6.91;83.20
55763;BME280;42162;51.958;5.426;2024-03-02T02:33:02;99937.28;;;6.92;83.30
55763;BME280;42162;51.958;5.426;2024-03-02T02:35:30;99938.09;;;6.92;83.40
55763;BME280;42162;51.958;5.426;2024-03-02T02:37:57;99933.81;;;6.91;83.30
55763;BME280;42162;51.958;5.426;2024-03-02T02:40:26;99940.66;;;6.94;83.35
55763;BME280;42162;51.958;5.426;2024-03-02T02:42:53;99943.25;;;6.94;83.65
55763;BME280;42162;51.958;5.426;2024-03-02T02:45:20;99938.97;;;6.93;83.39
55763;BME280;42162;51.958;5.426;2024-03-02T02:47:48;99937.28;;;6.90;83.21
55763;BME280;42162;51.958;5.426;2024-03-02T02:50:15;99944.13;;;6.93;83.23
55763;BME280;42162;51.958;5.426;2024-03-02T02:52:43;99945.84;;;6.92;83.13
55763;BME280;42162;51.958;5.426;2024-03-02T02:55:12;99933.88;;;6.90;82.94
55763;BME280;42162;51.958;5.426;2024-03-02T02:57:41;99942.50;;;6.89;82.93
55763;BME280;42162;51.958;5.426;2024-03-02T03:00:12;99931.34;;;6.88;82.99
55763;BME280;42162;51.958;5.426;2024-03-02T03:02:46;99941.69;;;6.87;82.73
55763;BME280;42162;51.958;5.426;2024-03-02T03:05:16;99942.66;;;6.81;82.82
55763;BME280;42162;51.958;5.426;2024-03-02T03:07:43;99937.56;;;6.79;82.97
55763;BME280;42162;51.958;5.426;2024-03-02T03:10:12;99925.53;;;6.78;83.27
55763;BME280;42162;51.958;5.426;2024-03-02T03:12:41;99926.56;;;6.71;83.31
55763;BME280;42162;51.958;5.426;2024-03-02T03:15:11;99945.56;;;6.67;83.18
55763;BME280;42162;51.958;5.426;2024-03-02T03:17:39;99937.94;;;6.62;83.63
55763;BME280;42162;51.958;5.426;2024-03-02T03:20:06;99935.41;;;6.61;83.44
55763;BME280;42162;51.958;5.426;2024-03-02T03:22:40;99932.00;;;6.59;83.60
55763;BME280;42162;51.958;5.426;2024-03-02T03:25:07;99955.19;;;6.60;83.69
55763;BME280;42162;51.958;5.426;2024-03-02T03:27:38;99946.59;;;6.60;83.46
55763;BME280;42162;51.958;5.426;2024-03-02T03:30:05;99939.66;;;6.62;83.31
55763;BME280;42162;51.958;5.426;2024-03-02T03:32:34;99957.72;;;6.63;83.36
55763;BME280;42162;51.958;5.426;2024-03-02T03:35:01;99957.72;;;6.63;83.37
55763;BME280;42162;51.958;5.426;2024-03-02T03:37:28;99956.88;;;6.61;83.62
55763;BME280;42162;51.958;5.426;2024-03-02T03:40:03;99956.06;;;6.59;83.78
55763;BME280;42162;51.958;5.426;2024-03-02T03:42:37;99970.72;;;6.59;83.38
55763;BME280;42162;51.958;5.426;2024-03-02T03:45:06;99963.88;;;6.56;83.67
55763;BME280;42162;51.958;5.426;2024-03-02T03:47:34;99969.06;;;6.55;83.73
55763;BME280;42162;51.958;5.426;2024-03-02T03:50:01;99959.63;;;6.54;83.94
55763;BME280;42162;51.958;5.426;2024-03-02T03:52:31;99953.66;;;6.52;83.90
55763;BME280;42162;51.958;5.426;2024-03-02T03:54:59;99953.63;;;6.53;84.03
55763;BME280;42162;51.958;5.426;2024-03-02T03:57:26;99959.69;;;6.52;84.05
55763;BME280;42162;51.958;5.426;2024-03-02T03:59:54;99948.47;;;6.53;83.87
55763;BME280;42162;51.958;5.426;2024-03-02T04:02:21;99953.69;;;6.50;84.22
55763;BME280;42162;51.958;5.426;2024-03-02T04:04:48;99960.59;;;6.48;84.17
55763;BME280;42162;51.958;5.426;2024-03-02T04:07:15;99964.94;;;6.46;84.00
55763;BME280;42162;51.958;5.426;2024-03-02T04:09:43;99964.13;;;6.45;84.18
55763;BME280;42162;51.958;5.426;2024-03-02T04:12:10;99975.28;;;6.46;84.09
55763;BME280;42162;51.958;5.426;2024-03-02T04:14:37;99973.56;;;6.45;83.98
55763;BME280;42162;51.958;5.426;2024-03-02T04:17:04;99972.72;;;6.44;83.90
55763;BME280;42162;51.958;5.426;2024-03-02T04:19:32;99968.44;;;6.43;83.80
55763;BME280;42162;51.958;5.426;2024-03-02T04:21:59;99967.56;;;6.44;83.54
55763;BME280;42162;51.958;5.426;2024-03-02T04:24:34;99966.69;;;6.45;83.82
55763;BME280;42162;51.958;5.426;2024-03-02T04:27:02;99972.78;;;6.43;83.65
55763;BME280;42162;51.958;5.426;2024-03-02T04:29:29;99971.06;;;6.42;83.38
55763;BME280;42162;51.958;5.426;2024-03-02T04:31:56;99983.16;;;6.40;83.52
55763;BME280;42162;51.958;5.426;2024-03-02T04:34:24;99971.13;;;6.39;83.36
55763;BME280;42162;51.958;5.426;2024-03-02T04:36:51;99978.06;;;6.37;83.55
55763;BME280;42162;51.958;5.426;2024-03-02T04:39:18;99984.19;;;6.31;83.37
55763;BME280;42162;51.958;5.426;2024-03-02T04:41:45;99982.63;;;6.24;83.15
55763;BME280;42162;51.958;5.426;2024-03-02T04:44:12;99981.84;;;6.18;83.70
55763;BME280;42162;51.958;5.426;2024-03-02T04:46:39;99993.03;;;6.17;83.62
55763;BME280;42162;51.958;5.426;2024-03-02T04:49:06;99996.50;;;6.18;83.69
55763;BME280;42162;51.958;5.426;2024-03-02T04:51:34;100005.94;;;6.17;83.63
55763;BME280;42162;51.958;5.426;2024-03-02T04:54:01;99987.88;;;6.19;83.58
55763;BME280;42162;51.958;5.426;2024-03-02T04:56:28;99996.44;;;6.21;83.34
55763;BME280;42162;51.958;5.426;2024-03-02T04:58:58;100005.84;;;6.22;83.32
55763;BME280;42162;51.958;5.426;2024-03-02T05:01:25;100002.38;;;6.25;83.32
55763;BME280;42162;51.958;5.426;2024-03-02T05:03:53;100004.91;;;6.26;83.19
55763;BME280;42162;51.958;5.426;2024-03-02T05:06:20;100004.91;;;6.26;82.95
55763;BME280;42162;51.958;5.426;2024-03-02T05:08:47;100005.75;;;6.28;83.22
55763;BME280;42162;51.958;5.426;2024-03-02T05:11:15;100002.28;;;6.29;82.96
55763;BME280;42162;51.958;5.426;2024-03-02T05:14:01;100012.59;;;6.29;83.00
55763;BME280;42162;51.958;5.426;2024-03-02T05:16:28;100014.25;;;6.32;82.58
55763;BME280;42162;51.958;5.426;2024-03-02T05:18:55;100005.59;;;6.35;82.52
55763;BME280;42162;51.958;5.426;2024-03-02T05:21:22;100005.53;;;6.38;82.68
55763;BME280;42162;51.958;5.426;2024-03-02T05:23:49;100008.03;;;6.42;82.64
55763;BME280;42162;51.958;5.426;2024-03-02T05:26:17;100012.25;;;6.45;82.28
55763;BME280;42162;51.958;5.426;2024-03-02T05:28:44;100018.25;;;6.47;82.26
55763;BME280;42162;51.958;5.426;2024-03-02T05:31:11;100010.47;;;6.50;82.07
55763;BME280;42162;51.958;5.426;2024-03-02T05:33:42;100008.66;;;6.54;81.87
55763;BME280;42162;51.958;5.426;2024-03-02T05:36:09;100010.41;;;6.53;81.27
55763;BME280;42162;51.958;5.426;2024-03-02T05:38:37;100024.28;;;6.46;81.27
55763;BME280;42162;51.958;5.426;2024-03-02T05:41:04;100020.19;;;6.37;81.73
55763;BME280;42162;51.958;5.426;2024-03-02T05:43:31;100020.28;;;6.31;81.95
55763;BME280;42162;51.958;5.426;2024-03-02T05:45:59;100020.38;;;6.26;82.12
55763;BME280;42162;51.958;5.426;2024-03-02T05:48:26;100018.78;;;6.21;82.27
55763;BME280;42162;51.958;5.426;2024-03-02T05:50:53;100021.44;;;6.16;82.08
55763;BME280;42162;51.958;5.426;2024-03-02T05:53:20;100021.50;;;6.14;82.42
55763;BME280;42162;51.958;5.426;2024-03-02T05:55:47;100019.81;;;6.12;82.16
55763;BME280;42162;51.958;5.426;2024-03-02T05:58:20;100032.78;;;6.09;82.41
55763;BME280;42162;51.958;5.426;2024-03-02T06:00:54;100039.59;;;6.10;82.20
55763;BME280;42162;51.958;5.426;2024-03-02T06:03:22;100032.81;;;6.06;82.40
55763;BME280;42162;51.958;5.426;2024-03-02T06:05:49;100036.31;;;6.01;82.40
55763;BME280;42162;51.958;5.426;2024-03-02T06:08:16;100036.38;;;5.97;82.06
55763;BME280;42162;51.958;5.426;2024-03-02T06:10:43;100045.03;;;5.93;82.37
55763;BME280;42162;51.958;5.426;2024-03-02T06:13:10;100042.53;;;5.90;82.46
55763;BME280;42162;51.958;5.426;2024-03-02T06:15:37;100052.06;;;5.84;82.43
55763;BME280;42162;51.958;5.426;2024-03-02T06:18:05;100052.19;;;5.78;82.31
55763;BME280;42162;51.958;5.426;2024-03-02T06:20:34;100063.38;;;5.77;82.63
55763;BME280;42162;51.958;5.426;2024-03-02T06:23:04;100059.91;;;5.78;82.60
55763;BME280;42162;51.958;5.426;2024-03-02T06:25:31;100061.63;;;5.79;82.71
55763;BME280;42162;51.958;5.426;2024-03-02T06:27:58;100055.69;;;5.74;82.77
55763;BME280;42162;51.958;5.426;2024-03-02T06:30:25;100076.25;;;5.77;82.85
55763;BME280;42162;51.958;5.426;2024-03-02T06:32:53;100071.91;;;5.81;82.74
55763;BME280;42162;51.958;5.426;2024-03-02T06:35:20;100065.81;;;5.85;82.95
55763;BME280;42162;51.958;5.426;2024-03-02T06:37:47;100070.09;;;5.86;82.44
55763;BME280;42162;51.958;5.426;2024-03-02T06:40:14;100081.22;;;5.88;82.56
55763;BME280;42162;51.958;5.426;2024-03-02T06:42:41;100067.44;;;5.91;82.44
55763;BME280;42162;51.958;5.426;2024-03-02T06:45:09;100068.31;;;5.90;82.44
55763;BME280;42162;51.958;5.426;2024-03-02T06:47:36;100072.59;;;5.91;82.30
55763;BME280;42162;51.958;5.426;2024-03-02T06:50:03;100073.44;;;5.91;82.56
55763;BME280;42162;51.958;5.426;2024-03-02T06:52:30;100071.72;;;5.90;82.39
55763;BME280;42162;51.958;5.426;2024-03-02T06:54:58;100067.44;;;5.89;82.47
55763;BME280;42162;51.958;5.426;2024-03-02T06:57:25;100069.16;;;5.90;82.66
55763;BME280;42162;51.958;5.426;2024-03-02T06:59:52;100064.78;;;5.94;82.45
55763;BME280;42162;51.958;5.426;2024-03-02T07:02:21;100067.34;;;5.95;82.60
55763;BME280;42162;51.958;5.426;2024-03-02T07:04:49;100065.59;;;5.97;82.51
55763;BME280;42162;51.958;5.426;2024-03-02T07:07:18;100071.63;;;5.96;82.42
55763;BME280;42162;51.958;5.426;2024-03-02T07:09:46;100074.16;;;5.99;82.67
55763;BME280;42162;51.958;5.426;2024-03-02T07:12:14;100080.16;;;6.01;83.01
55763;BME280;42162;51.958;5.426;2024-03-02T07:14:41;100082.69;;;6.05;82.74
55763;BME280;42162;51.958;5.426;2024-03-02T07:17:32;100079.94;;;6.14;83.00
55763;BME280;42162;51.958;5.426;2024-03-02T07:19:59;100081.56;;;6.20;82.62
55763;BME280;42162;51.958;5.426;2024-03-02T07:22:26;100090.91;;;6.25;82.67
55763;BME280;42162;51.958;5.426;2024-03-02T07:24:53;100082.19;;;6.31;82.53
55763;BME280;42162;51.958;5.426;2024-03-02T07:27:21;100083.81;;;6.37;82.56
55763;BME280;42162;51.958;5.426;2024-03-02T07:29:48;100090.63;;;6.41;82.24
55763;BME280;42162;51.958;5.426;2024-03-02T07:32:16;100094.00;;;6.44;82.51
55763;BME280;42162;51.958;5.426;2024-03-02T07:34:43;100106.81;;;6.49;82.38
55763;BME280;42162;51.958;5.426;2024-03-02T07:37:13;100099.88;;;6.51;82.46
55763;BME280;42162;51.958;5.426;2024-03-02T07:39:43;100102.38;;;6.56;82.43
55763;BME280;42162;51.958;5.426;2024-03-02T07:42:11;100107.47;;;6.59;82.43
55763;BME280;42162;51.958;5.426;2024-03-02T07:44:38;100109.97;;;6.63;82.13
55763;BME280;42162;51.958;5.426;2024-03-02T07:47:07;100097.00;;;6.67;82.07
55763;BME280;42162;51.958;5.426;2024-03-02T07:49:37;100096.09;;;6.69;81.96
55763;BME280;42162;51.958;5.426;2024-03-02T07:52:05;100094.38;;;6.68;81.79
55763;BME280;42162;51.958;5.426;2024-03-02T07:54:32;100102.91;;;6.72;81.52
55763;BME280;42162;51.958;5.426;2024-03-02T07:56:59;100100.22;;;6.76;81.35
55763;BME280;42162;51.958;5.426;2024-03-02T07:59:27;100104.50;;;6.77;81.50
55763;BME280;42162;51.958;5.426;2024-03-02T08:01:54;100101.09;;;6.77;81.00
55763;BME280;42162;51.958;5.426;2024-03-02T08:04:22;100102.75;;;6.79;81.20
55763;BME280;42162;51.958;5.426;2024-03-02T08:06:50;100107.97;;;6.76;81.28
55763;BME280;42162;51.958;5.426;2024-03-02T08:09:17;100120.88;;;6.76;80.94
55763;BME280;42162;51.958;5.426;2024-03-02T08:11:44;100121.84;;;6.72;80.79
55763;BME280;42162;51.958;5.426;2024-03-02T08:14:11;100109.78;;;6.73;81.09
55763;BME280;42162;51.958;5.426;2024-03-02T08:16:39;100122.63;;;6.76;81.01
55763;BME280;42162;51.958;5.426;2024-03-02T08:19:07;100132.00;;;6.80;81.07
55763;BME280;42162;51.958;5.426;2024-03-02T08:21:36;100120.72;;;6.84;80.87
55763;BME280;42162;51.958;5.426;2024-03-02T08:24:03;100121.41;;;6.94;81.05
55763;BME280;42162;51.958;5.426;2024-03-02T08:26:31;100121.19;;;7.03;80.54
55763;BME280;42162;51.958;5.426;2024-03-02T08:29:02;100117.47;;;7.17;80.19
55763;BME280;42162;51.958;5.426;2024-03-02T08:31:30;100113.75;;;7.30;80.01
55763;BME280;42162;51.958;5.426;2024-03-02T08:33:57;100119.47;;;7.43;79.96
55763;BME280;42162;51.958;5.426;2024-03-02T08:36:26;100120.03;;;7.56;79.95
55763;BME280;42162;51.958;5.426;2024-03-02T08:38:53;100122.38;;;7.67;79.50
55763;BME280;42162;51.958;5.426;2024-03-02T08:41:21;100117.78;;;7.78;79.44
55763;BME280;42162;51.958;5.426;2024-03-02T08:43:48;100119.19;;;7.92;78.84
55763;BME280;42162;51.958;5.426;2024-03-02T08:46:15;100124.94;;;8.01;78.44
55763;BME280;42162;51.958;5.426;2024-03-02T08:48:43;100115.19;;;8.13;78.22
55763;BME280;42162;51.958;5.426;2024-03-02T08:51:10;100115.91;;;8.18;77.17
55763;BME280;42162;51.958;5.426;2024-03-02T08:53:38;100121.72;;;8.28;77.37
55763;BME280;42162;51.958;5.426;2024-03-02T08:56:05;100120.44;;;8.43;76.93
55763;BME280;42162;51.958;5.426;2024-03-02T08:58:33;100120.28;;;8.51;75.46
55763;BME280;42162;51.958;5.426;2024-03-02T09:01:00;100126.84;;;8.62;75.50
55763;BME280;42162;51.958;5.426;2024-03-02T09:03:28;100153.09;;;8.80;75.49
55763;BME280;42162;51.958;5.426;2024-03-02T09:05:55;100139.53;;;9.32;74.59
55763;BME280;42162;51.958;5.426;2024-03-02T09:08:22;100130.91;;;10.64;71.67
55763;BME280;42162;51.958;5.426;2024-03-02T09:10:50;100134.06;;;11.85;69.06
55763;BME280;42162;51.958;5.426;2024-03-02T09:13:17;100128.69;;;12.52;66.32
55763;BME280;42162;51.958;5.426;2024-03-02T09:15:44;100145.63;;;13.19;64.84
55763;BME280;42162;51.958;5.426;2024-03-02T09:18:12;100129.59;;;13.65;63.86
55763;BME280;42162;51.958;5.426;2024-03-02T09:20:40;100130.09;;;13.91;61.60
55763;BME280;42162;51.958;5.426;2024-03-02T09:23:07;100124.19;;;14.39;62.04
55763;BME280;42162;51.958;5.426;2024-03-02T09:25:34;100123.31;;;14.89;60.55
55763;BME280;42162;51.958;5.426;2024-03-02T09:28:02;100124.44;;;15.33;59.47
55763;BME280;42162;51.958;5.426;2024-03-02T09:30:30;100125.06;;;15.69;59.04
55763;BME280;42162;51.958;5.426;2024-03-02T09:32:57;100121.81;;;15.96;57.10
55763;BME280;42162;51.958;5.426;2024-03-02T09:35:27;100124.63;;;16.07;56.87
55763;BME280;42162;51.958;5.426;2024-03-02T09:37:55;100124.03;;;15.87;55.75
55763;BME280;42162;51.958;5.426;2024-03-02T09:40:22;100129.78;;;16.09;55.73
55763;BME280;42162;51.958;5.426;2024-03-02T09:42:50;100133.94;;;16.27;54.31
55763;BME280;42162;51.958;5.426;2024-03-02T09:45:23;100144.44;;;15.97;53.18
55763;BME280;42162;51.958;5.426;2024-03-02T09:47:51;100137.00;;;15.42;54.56
55763;BME280;42162;51.958;5.426;2024-03-02T09:50:18;100130.03;;;14.44;55.97
55763;BME280;42162;51.958;5.426;2024-03-02T09:52:49;100147.00;;;13.47;57.43
55763;BME280;42162;51.958;5.426;2024-03-02T09:55:18;100138.53;;;12.85;58.59
55763;BME280;42162;51.958;5.426;2024-03-02T09:57:46;100152.19;;;12.50;59.60
55763;BME280;42162;51.958;5.426;2024-03-02T10:00:15;100142.28;;;12.18;59.53
55763;BME280;42162;51.958;5.426;2024-03-02T10:02:43;100162.81;;;11.82;60.32
55763;BME280;42162;51.958;5.426;2024-03-02T10:05:10;100147.41;;;11.55;61.19
55763;BME280;42162;51.958;5.426;2024-03-02T10:07:39;100137.06;;;11.31;61.03
55763;BME280;42162;51.958;5.426;2024-03-02T10:10:13;100137.72;;;11.14;60.83
55763;BME280;42162;51.958;5.426;2024-03-02T10:12:41;100150.19;;;11.04;61.64
55763;BME280;42162;51.958;5.426;2024-03-02T10:15:08;100142.94;;;10.90;61.59
55763;BME280;42162;51.958;5.426;2024-03-02T10:17:36;100148.28;;;10.86;62.09
55763;BME280;42162;51.958;5.426;2024-03-02T10:20:23;100153.53;;;10.84;61.82
55763;BME280;42162;51.958;5.426;2024-03-02T10:22:51;100126.81;;;10.80;61.94
55763;BME280;42162;51.958;5.426;2024-03-02T10:25:31;100141.75;;;10.75;62.09
55763;BME280;42162;51.958;5.426;2024-03-02T10:28:02;100149.56;;;10.74;62.39
55763;BME280;42162;51.958;5.426;2024-03-02T10:30:34;100136.75;;;10.69;62.43
55763;BME280;42162;51.958;5.426;2024-03-02T10:33:02;100140.34;;;10.65;62.23
55763;BME280;42162;51.958;5.426;2024-03-02T10:35:30;100138.78;;;10.61;62.51
55763;BME280;42162;51.958;5.426;2024-03-02T10:38:06;100113.56;;;10.64;62.83
55763;BME280;42162;51.958;5.426;2024-03-02T10:40:33;100110.56;;;10.75;62.29
55763;BME280;42162;51.958;5.426;2024-03-02T10:43:01;100102.44;;;10.85;62.88
55763;BME280;42162;51.958;5.426;2024-03-02T10:45:32;100091.75;;;10.92;62.23
55763;BME280;42162;51.958;5.426;2024-03-02T10:48:01;100095.13;;;10.94;62.17
55763;BME280;42162;51.958;5.426;2024-03-02T10:50:29;100091.69;;;10.94;61.94
55763;BME280;42162;51.958;5.426;2024-03-02T10:52:57;100096.78;;;10.97;62.17
55763;BME280;42162;51.958;5.426;2024-03-02T10:55:24;100088.00;;;11.00;62.31
55763;BME280;42162;51.958;5.426;2024-03-02T10:57:53;100099.31;;;10.99;61.94
55763;BME280;42162;51.958;5.426;2024-03-02T11:00:24;100103.94;;;10.90;61.97
55763;BME280;42162;51.958;5.426;2024-03-02T11:02:58;100102.28;;;10.88;61.90
55763;BME280;42162;51.958;5.426;2024-03-02T11:05:36;100100.63;;;10.87;62.04
55763;BME280;42162;51.958;5.426;2024-03-02T11:08:08;100104.88;;;10.88;62.30
55763;BME280;42162;51.958;5.426;2024-03-02T11:10:50;100108.09;;;10.94;61.56
55763;BME280;42162;51.958;5.426;2024-03-02T11:13:24;100103.88;;;10.92;61.25
55763;BME280;42162;51.958;5.426;2024-03-02T11:15:55;100107.34;;;10.92;61.44
55763;BME280;42162;51.958;5.426;2024-03-02T11:18:26;100108.09;;;10.94;61.31
55763;BME280;42162;51.958;5.426;2024-03-02T11:20:54;100110.72;;;10.94;61.19
55763;BME280;42162;51.958;5.426;2024-03-02T11:23:32;100105.47;;;10.96;60.68
55763;BME280;42162;51.958;5.426;2024-03-02T11:26:20;100114.38;;;10.89;59.61
55763;BME280;42162;51.958;5.426;2024-03-02T11:28:48;100093.03;;;10.80;60.38
55763;BME280;42162;51.958;5.426;2024-03-02T11:31:16;100096.63;;;10.78;60.25
55763;BME280;42162;51.958;5.426;2024-03-02T11:33:44;100076.72;;;10.77;60.47
55763;BME280;42162;51.958;5.426;2024-03-02T11:36:11;100105.13;;;10.82;59.88
55763;BME280;42162;51.958;5.426;2024-03-02T11:38:39;100078.19;;;10.84;60.03
55763;BME280;42162;51.958;5.426;2024-03-02T11:41:10;100100.63;;;10.87;59.79
55763;BME280;42162;51.958;5.426;2024-03-02T11:43:38;100086.72;;;10.88;59.88
55763;BME280;42162;51.958;5.426;2024-03-02T11:46:08;100079.69;;;10.90;59.87
55763;BME280;42162;51.958;5.426;2024-03-02T11:48:37;100091.75;;;10.92;59.97
55763;BME280;42162;51.958;5.426;2024-03-02T11:51:06;100077.00;;;10.93;59.27
55763;BME280;42162;51.958;5.426;2024-03-02T11:53:35;100069.28;;;10.91;59.57
55763;BME280;42162;51.958;5.426;2024-03-02T11:56:06;100077.53;;;11.01;59.28
55763;BME280;42162;51.958;5.426;2024-03-02T11:58:37;100087.03;;;11.02;58.54
55763;BME280;42162;51.958;5.426;2024-03-02T12:01:04;100074.94;;;11.01;58.54
55763;BME280;42162;51.958;5.426;2024-03-02T12:03:32;100064.50;;;11.03;58.51
55763;BME280;42162;51.958;5.426;2024-03-02T12:05:59;100068.66;;;11.07;58.90
55763;BME280;42162;51.958;5.426;2024-03-02T12:08:27;100074.66;;;11.09;58.60
55763;BME280;42162;51.958;5.426;2024-03-02T12:11:03;100060.75;;;11.10;58.72
55763;BME280;42162;51.958;5.426;2024-03-02T12:13:33;100054.47;;;11.16;58.80
55763;BME280;42162;51.958;5.426;2024-03-02T12:16:01;100060.34;;;11.21;59.19
55763;BME280;42162;51.958;5.426;2024-03-02T12:18:28;100046.38;;;11.23;58.32
55763;BME280;42162;51.958;5.426;2024-03-02T12:20:55;100058.31;;;11.27;58.00
55763;BME280;42162;51.958;5.426;2024-03-02T12:23:26;100046.19;;;11.28;57.66
55763;BME280;42162;51.958;5.426;2024-03-02T12:25:54;100044.38;;;11.30;58.19
55763;BME280;42162;51.958;5.426;2024-03-02T12:28:21;100049.56;;;11.30;58.31
55763;BME280;42162;51.958;5.426;2024-03-02T12:30:49;100034.03;;;11.29;58.09
55763;BME280;42162;51.958;5.426;2024-03-02T12:33:17;100039.28;;;11.27;58.53
55763;BME280;42162;51.958;5.426;2024-03-02T12:35:45;100027.78;;;11.33;58.32
55763;BME280;42162;51.958;5.426;2024-03-02T12:38:12;100024.22;;;11.35;58.22
55763;BME280;42162;51.958;5.426;2024-03-02T12:40:42;100031.19;;;11.35;57.88
55763;BME280;42162;51.958;5.426;2024-03-02T12:43:09;100022.47;;;11.36;58.40
55763;BME280;42162;51.958;5.426;2024-03-02T12:45:37;100013.81;;;11.35;58.31
55763;BME280;42162;51.958;5.426;2024-03-02T12:48:04;100019.91;;;11.34;58.49
55763;BME280;42162;51.958;5.426;2024-03-02T12:50:33;100013.88;;;11.34;59.01
55763;BME280;42162;51.958;5.426;2024-03-02T12:53:01;100005.19;;;11.35;59.78
55763;BME280;42162;51.958;5.426;2024-03-02T12:55:28;100012.00;;;11.37;59.51
55763;BME280;42162;51.958;5.426;2024-03-02T12:57:57;100002.47;;;11.38;59.43
55763;BME280;42162;51.958;5.426;2024-03-02T13:00:26;99999.72;;;11.41;59.58
55763;BME280;42162;51.958;5.426;2024-03-02T13:02:54;100003.78;;;11.48;59.56
55763;BME280;42162;51.958;5.426;2024-03-02T13:05:32;100010.72;;;11.48;59.13
55763;BME280;42162;51.958;5.426;2024-03-02T13:08:00;100000.44;;;11.45;59.11
55763;BME280;42162;51.958;5.426;2024-03-02T13:10:30;100012.59;;;11.44;59.32